createdAt,value
2023-02-25T00:01:27.011Z,7.57
2023-02-25T00:03:56.258Z,8.50
2023-02-25T00:06:26.924Z,7.82
2023-02-25T00:08:55.150Z,7.43
2023-02-25T00:11:24.106Z,6.78
2023-02-25T00:13:52.159Z,7.78
2023-02-25T00:16:21.590Z,7.10
2023-02-25T00:18:56.867Z,7.60
2023-02-25T00:21:25.796Z,7.97
2023-02-25T00:23:53.906Z,7.50
2023-02-25T00:26:22.466Z,8.55
2023-02-25T00:28:50.871Z,7.90
2023-02-25T00:31:23.304Z,8.02
2023-02-25T00:33:52.145Z,8.10
2023-02-25T00:36:24.064Z,7.80
2023-02-25T00:38:54.771Z,9.60
2023-02-25T00:41:27.046Z,10.30
2023-02-25T00:44:02.392Z,8.65
2023-02-25T00:46:30.856Z,7.90
2023-02-25T00:48:59.744Z,7.50
2023-02-25T00:51:30.136Z,7.70
2023-02-25T00:53:57.809Z,8.10
2023-02-25T00:56:26.202Z,7.63
2023-02-25T00:58:56.124Z,8.30
2023-02-25T01:01:33.631Z,7.57
2023-02-25T01:04:04.149Z,8.20
2023-02-25T01:06:34.311Z,8.43
2023-02-25T01:09:01.956Z,8.25
2023-02-25T01:11:35.535Z,8.95
2023-02-25T01:14:08.733Z,8.52
2023-02-25T01:16:37.801Z,8.18
2023-02-25T01:19:13.021Z,8.23
2023-02-25T01:21:44.069Z,8.27
2023-02-25T01:24:15.159Z,8.38
2023-02-25T01:26:44.701Z,8.35
2023-02-25T01:29:16.572Z,8.68
2023-02-25T01:31:47.615Z,8.63
2023-02-25T01:34:21.192Z,7.95
2023-02-25T01:36:49.028Z,8.25
2023-02-25T01:39:21.981Z,8.32
2023-02-25T01:41:53.558Z,7.93
2023-02-25T01:44:25.626Z,9.02
2023-02-25T01:46:56.315Z,8.43
2023-02-25T01:49:37.721Z,8.60
2023-02-25T01:52:11.758Z,8.10
2023-02-25T01:54:40.376Z,8.30
2023-02-25T01:57:10.576Z,8.98
2023-02-25T01:59:40.573Z,8.70
2023-02-25T02:02:19.756Z,7.50
2023-02-25T02:04:51.631Z,8.10
2023-02-25T02:07:24.969Z,8.32
2023-02-25T02:09:58.718Z,8.20
2023-02-25T02:12:40.928Z,7.78
2023-02-25T02:15:12.830Z,8.35
2023-02-25T02:17:44.478Z,7.63
2023-02-25T02:20:26.841Z,7.63
2023-02-25T02:23:12.733Z,8.05
2023-02-25T02:25:52.840Z,8.43
2023-02-25T02:28:32.798Z,7.05
2023-02-25T02:31:24.579Z,7.85
2023-02-25T02:34:10.455Z,8.25
2023-02-25T02:37:19.203Z,7.57
2023-02-25T02:40:16.006Z,7.00
2023-02-25T02:43:09.873Z,6.78
2023-02-25T02:45:53.157Z,7.05
2023-02-25T02:48:41.735Z,6.85
2023-02-25T02:51:16.400Z,6.88
2023-02-25T02:53:51.444Z,6.82
2023-02-25T02:56:22.207Z,7.70
2023-02-25T02:59:15.409Z,7.93
2023-02-25T03:01:47.371Z,7.78
2023-02-25T03:04:19.425Z,6.87
2023-02-25T03:06:52.336Z,7.72
2023-02-25T03:09:24.759Z,6.47
2023-02-25T03:11:52.585Z,6.90
2023-02-25T03:14:20.268Z,8.55
2023-02-25T03:17:10.123Z,8.02
2023-02-25T03:19:56.935Z,7.00
2023-02-25T03:22:33.483Z,7.43
2023-02-25T03:25:14.800Z,8.30
2023-02-25T03:27:47.935Z,7.78
2023-02-25T03:30:29.585Z,8.38
2023-02-25T03:33:12.046Z,6.93
2023-02-25T03:35:40.714Z,7.85
2023-02-25T03:38:12.864Z,7.07
2023-02-25T03:40:42.378Z,7.13
2023-02-25T03:43:17.822Z,7.47
2023-02-25T03:45:45.992Z,7.03
2023-02-25T03:48:16.277Z,7.72
2023-02-25T03:50:48.808Z,8.13
2023-02-25T03:56:14.369Z,6.22
2023-02-25T03:58:44.500Z,7.25
2023-02-25T04:01:19.792Z,7.68
2023-02-25T04:03:47.529Z,9.32
2023-02-25T04:06:16.434Z,7.95
2023-02-25T04:08:44.024Z,7.00
2023-02-25T04:11:11.253Z,7.70
2023-02-25T04:13:39.010Z,7.90
2023-02-25T04:16:09.309Z,8.23
2023-02-25T04:18:37.042Z,8.20
2023-02-25T04:21:10.264Z,8.70
2023-02-25T04:23:37.582Z,7.95
2023-02-25T04:26:07.675Z,7.75
2023-02-25T04:28:35.221Z,7.53
2023-02-25T04:31:03.455Z,7.60
2023-02-25T04:33:31.197Z,8.48
2023-02-25T04:35:58.503Z,6.40
2023-02-25T04:38:25.982Z,7.18
2023-02-25T04:40:55.380Z,7.60
2023-02-25T04:43:22.700Z,8.77
2023-02-25T04:45:50.014Z,9.82
2023-02-25T04:48:24.315Z,9.35
2023-02-25T04:50:51.573Z,8.00
2023-02-25T04:53:18.790Z,6.78
2023-02-25T04:55:45.973Z,7.75
2023-02-25T04:58:13.274Z,17.27
2023-02-25T05:00:47.642Z,10.90
2023-02-25T05:03:15.387Z,9.15
2023-02-25T05:05:42.819Z,9.40
2023-02-25T05:08:10.000Z,8.05
2023-02-25T05:10:37.181Z,10.40
2023-02-25T05:13:04.266Z,9.98
2023-02-25T05:15:31.479Z,8.82
2023-02-25T05:17:58.619Z,10.13
2023-02-25T05:20:25.816Z,11.40
2023-02-25T05:22:53.185Z,8.23
2023-02-25T05:25:20.429Z,8.80
2023-02-25T05:27:48.139Z,8.75
2023-02-25T05:30:15.792Z,9.77
2023-02-25T05:32:43.069Z,10.38
2023-02-25T05:35:11.026Z,9.32
2023-02-25T05:37:38.414Z,8.25
2023-02-25T05:40:07.317Z,8.70
2023-02-25T05:42:34.518Z,9.27
2023-02-25T05:45:01.653Z,7.95
2023-02-25T05:47:29.086Z,6.03
2023-02-25T05:49:56.272Z,7.43
2023-02-25T05:52:23.490Z,6.55
2023-02-25T05:54:50.551Z,4.75
2023-02-25T05:57:17.718Z,4.18
2023-02-25T05:59:45.039Z,4.80
2023-02-25T06:02:12.293Z,3.20
2023-02-25T06:04:39.441Z,3.67
2023-02-25T06:07:07.235Z,4.90
2023-02-25T06:09:34.802Z,4.30
2023-02-25T06:12:02.107Z,3.50
2023-02-25T06:14:29.246Z,2.53
2023-02-25T06:16:57.029Z,3.40
2023-02-25T06:19:26.480Z,2.40
2023-02-25T06:21:54.942Z,2.10
2023-02-25T06:24:23.060Z,3.90
2023-02-25T06:26:50.530Z,2.67
2023-02-25T06:29:17.660Z,4.00
2023-02-25T06:31:45.094Z,4.53
2023-02-25T06:34:12.429Z,3.53
2023-02-25T06:36:39.711Z,2.22
2023-02-25T06:39:06.918Z,2.85
2023-02-25T06:41:33.924Z,2.50
2023-02-25T06:44:01.051Z,1.02
2023-02-25T06:46:28.566Z,0.70
2023-02-25T06:48:56.168Z,3.58
2023-02-25T06:51:23.681Z,4.78
2023-02-25T06:53:53.216Z,4.00
2023-02-25T06:56:22.141Z,2.65
2023-02-25T06:58:53.579Z,1.48
2023-02-25T07:01:21.102Z,2.83
2023-02-25T07:03:48.451Z,1.20
2023-02-25T07:06:16.113Z,2.05
2023-02-25T07:08:43.561Z,1.40
2023-02-25T07:11:20.349Z,0.60
2023-02-25T07:13:49.670Z,0.50
2023-02-25T07:16:17.646Z,0.95
2023-02-25T07:18:45.536Z,0.50
2023-02-25T07:21:13.813Z,1.52
2023-02-25T07:23:41.497Z,3.75
2023-02-25T07:26:11.660Z,1.13
2023-02-25T07:28:39.521Z,2.08
2023-02-25T07:31:13.072Z,2.83
2023-02-25T07:33:41.975Z,2.88
2023-02-25T07:36:10.598Z,1.98
2023-02-25T07:38:39.625Z,1.13
2023-02-25T07:41:09.549Z,1.13
2023-02-25T07:43:36.909Z,1.15
2023-02-25T07:46:05.096Z,1.10
2023-02-25T07:48:33.290Z,0.70
2023-02-25T07:51:08.972Z,0.93
2023-02-25T07:53:36.351Z,1.45
2023-02-25T07:56:06.196Z,1.73
2023-02-25T07:58:33.702Z,1.30
2023-02-25T08:01:03.556Z,0.55
2023-02-25T08:03:30.803Z,1.35
2023-02-25T08:05:59.620Z,0.90
2023-02-25T08:08:27.895Z,0.60
2023-02-25T08:10:55.273Z,0.45
2023-02-25T08:13:22.404Z,0.20
2023-02-25T08:15:49.547Z,0.40
2023-02-25T08:18:20.047Z,0.85
2023-02-25T08:20:47.986Z,1.15
2023-02-25T08:23:15.314Z,0.60
2023-02-25T08:25:42.752Z,0.63
2023-02-25T08:28:10.528Z,1.10
2023-02-25T08:30:38.306Z,2.95
2023-02-25T08:33:06.862Z,4.07
2023-02-25T08:35:34.049Z,1.70
2023-02-25T08:38:01.365Z,2.35
2023-02-25T08:40:28.496Z,1.10
2023-02-25T08:42:55.836Z,4.78
2023-02-25T08:45:22.985Z,1.52
2023-02-25T08:47:50.317Z,1.08
2023-02-25T08:50:20.239Z,0.63
2023-02-25T08:52:47.488Z,1.50
2023-02-25T08:55:15.123Z,1.20
2023-02-25T08:57:43.382Z,1.23
2023-02-25T09:00:15.500Z,3.30
2023-02-25T09:02:43.386Z,2.47
2023-02-25T09:05:10.951Z,1.70
2023-02-25T09:07:38.128Z,2.47
2023-02-25T09:10:10.293Z,2.15
2023-02-25T09:12:38.563Z,1.77
2023-02-25T09:15:07.603Z,22.30
2023-02-25T09:17:35.196Z,7.05
2023-02-25T09:20:06.693Z,5.00
2023-02-25T09:22:35.225Z,2.40
2023-02-25T09:25:03.916Z,2.47
2023-02-25T09:27:31.194Z,2.42
2023-02-25T09:29:58.368Z,2.33
2023-02-25T09:32:26.047Z,2.33
2023-02-25T09:34:53.421Z,3.15
2023-02-25T09:37:21.774Z,6.50
2023-02-25T09:39:49.044Z,9.05
2023-02-25T09:43:06.104Z,5.25
2023-02-25T09:45:34.983Z,2.90
2023-02-25T09:48:10.254Z,1.58
2023-02-25T09:50:43.324Z,1.33
2023-02-25T09:53:23.535Z,1.20
2023-02-25T09:55:53.207Z,0.88
2023-02-25T09:58:29.687Z,1.80
2023-02-25T10:01:14.446Z,0.75
2023-02-25T10:03:55.170Z,0.60
2023-02-25T10:06:34.508Z,0.80
2023-02-25T10:09:54.046Z,0.60
2023-02-25T10:12:39.734Z,0.40
2023-02-25T10:15:37.724Z,1.00
2023-02-25T10:18:29.996Z,0.52
2023-02-25T10:21:09.133Z,0.68
2023-02-25T10:23:50.542Z,1.25
2023-02-25T10:26:24.717Z,2.72
2023-02-25T10:29:00.404Z,0.90
2023-02-25T10:31:32.258Z,1.33
2023-02-25T10:34:22.175Z,0.30
2023-02-25T10:36:59.968Z,2.03
2023-02-25T10:39:28.636Z,0.70
2023-02-25T10:41:56.012Z,0.60
2023-02-25T10:44:23.214Z,0.40
2023-02-25T10:47:01.749Z,2.05
2023-02-25T10:49:30.564Z,1.48
2023-02-25T10:52:19.584Z,0.93
2023-02-25T10:54:49.698Z,0.90
2023-02-25T10:57:40.509Z,0.98
2023-02-25T11:00:23.334Z,1.00
2023-02-25T11:02:51.901Z,0.90
2023-02-25T11:05:36.970Z,1.20
2023-02-25T11:08:07.905Z,1.70
2023-02-25T11:10:35.397Z,2.33
2023-02-25T11:13:05.372Z,0.82
2023-02-25T11:15:45.251Z,0.43
2023-02-25T11:18:32.311Z,1.20
2023-02-25T11:21:07.473Z,0.30
2023-02-25T11:23:36.691Z,1.00
2023-02-25T11:26:06.687Z,1.20
2023-02-25T11:28:41.053Z,0.90
2023-02-25T11:31:15.664Z,1.75
2023-02-25T11:33:49.581Z,1.13
2023-02-25T11:36:25.360Z,1.05
2023-02-25T11:39:04.818Z,0.73
2023-02-25T11:41:32.426Z,1.35
2023-02-25T11:44:31.865Z,3.15
2023-02-25T11:47:08.436Z,2.67
2023-02-25T11:49:42.795Z,0.73
2023-02-25T11:52:44.028Z,0.30
2023-02-25T11:55:45.481Z,0.60
2023-02-25T11:58:17.526Z,0.50
2023-02-25T12:01:05.115Z,0.20
2023-02-25T12:03:43.665Z,0.65
2023-02-25T12:06:34.912Z,0.30
2023-02-25T12:09:37.286Z,0.25
2023-02-25T12:12:44.109Z,0.28
2023-02-25T12:15:32.041Z,0.50
2023-02-25T12:18:08.580Z,0.52
2023-02-25T12:20:59.826Z,0.40
2023-02-25T12:23:55.093Z,0.30
2023-02-25T12:26:58.825Z,0.57
2023-02-25T12:29:47.387Z,0.30
2023-02-25T12:32:45.534Z,0.30
2023-02-25T12:35:38.732Z,0.40
2023-02-25T12:41:16.949Z,0.60
2023-02-25T12:44:03.387Z,1.02
2023-02-25T12:46:49.842Z,0.35
2023-02-25T12:49:20.114Z,0.50
2023-02-25T12:52:26.640Z,1.27
2023-02-25T12:55:19.383Z,0.40
2023-02-25T12:58:09.557Z,0.30
2023-02-25T13:01:01.312Z,0.30
2023-02-25T13:04:01.645Z,0.40
2023-02-25T13:07:00.236Z,0.60
2023-02-25T13:09:44.195Z,0.40
2023-02-25T13:12:29.352Z,0.32
2023-02-25T13:15:21.020Z,0.50
2023-02-25T13:18:25.900Z,1.75
2023-02-25T13:21:13.780Z,0.47
2023-02-25T13:24:06.387Z,0.65
2023-02-25T13:26:52.267Z,2.08
2023-02-25T13:29:19.497Z,0.73
2023-02-25T13:32:16.378Z,0.40
2023-02-25T13:34:55.708Z,0.30
2023-02-25T13:37:43.588Z,0.20
2023-02-25T13:40:48.815Z,0.40
2023-02-25T13:43:44.396Z,2.33
2023-02-25T13:46:40.349Z,2.40
2023-02-25T13:49:07.836Z,4.35
2023-02-25T13:52:02.533Z,2.80
2023-02-25T13:54:53.831Z,4.70
2023-02-25T13:57:25.068Z,6.45
2023-02-25T14:00:26.707Z,8.10
2023-02-25T14:03:49.111Z,1.48
2023-02-25T14:06:49.687Z,1.08
2023-02-25T14:09:34.954Z,0.80
2023-02-25T14:12:39.320Z,1.92
2023-02-25T14:15:29.638Z,0.47
2023-02-25T14:18:12.596Z,0.20
2023-02-25T14:23:14.852Z,0.85
2023-02-25T14:25:58.469Z,0.20
2023-02-25T14:28:41.153Z,0.20
2023-02-25T14:31:45.788Z,0.60
2023-02-25T14:35:01.257Z,0.63
2023-02-25T14:37:34.661Z,0.85
2023-02-25T14:40:22.248Z,0.20
2023-02-25T14:43:17.134Z,0.20
2023-02-25T14:45:53.116Z,0.30
2023-02-25T14:48:24.077Z,0.20
2023-02-25T14:51:22.363Z,0.20
2023-02-25T14:54:05.867Z,1.65
2023-02-25T14:57:07.584Z,0.50
2023-02-25T15:00:12.611Z,0.65
2023-02-25T15:02:50.715Z,1.38
2023-02-25T15:05:39.906Z,0.60
2023-02-25T15:08:37.390Z,0.45
2023-02-25T15:11:32.143Z,0.13
2023-02-25T15:14:02.091Z,0.30
2023-02-25T15:16:35.827Z,1.73
2023-02-25T15:19:35.183Z,0.57
2023-02-25T15:22:19.939Z,0.45
2023-02-25T15:24:48.165Z,0.30
2023-02-25T15:27:37.257Z,0.30
2023-02-25T15:30:06.680Z,0.20
2023-02-25T15:33:12.212Z,0.20
2023-02-25T15:35:40.267Z,0.95
2023-02-25T15:38:15.074Z,0.47
2023-02-25T15:40:46.179Z,0.60
2023-02-25T15:43:14.395Z,0.93
2023-02-25T15:45:48.062Z,0.13
2023-02-25T15:48:25.411Z,1.50
2023-02-25T15:50:53.803Z,2.80
2023-02-25T15:53:24.812Z,2.33
2023-02-25T15:56:04.742Z,0.40
2023-02-25T15:58:32.666Z,1.10
2023-02-25T16:01:07.237Z,2.00
2023-02-25T16:03:35.407Z,2.35
2023-02-25T16:06:16.926Z,0.50
2023-02-25T16:08:57.803Z,0.75
2023-02-25T16:11:39.520Z,1.52
2023-02-25T16:14:32.092Z,0.95
2023-02-25T16:17:05.587Z,1.00
2023-02-25T16:19:39.870Z,0.80
2023-02-25T16:22:20.424Z,1.25
2023-02-25T16:24:54.597Z,7.95
2023-02-25T16:28:04.992Z,6.70
2023-02-25T16:30:44.775Z,17.50
2023-02-25T16:33:35.770Z,14.40
2023-02-25T16:36:38.565Z,18.02
2023-02-25T16:39:18.875Z,10.00
2023-02-25T16:41:47.505Z,7.45
2023-02-25T16:44:38.133Z,7.90
2023-02-25T16:47:27.767Z,3.42
2023-02-25T16:49:58.922Z,1.98
2023-02-25T16:52:38.334Z,4.05
2023-02-25T16:55:13.032Z,2.17
2023-02-25T16:57:42.304Z,1.63
2023-02-25T17:00:20.754Z,1.23
2023-02-25T17:02:51.392Z,2.10
2023-02-25T17:05:33.078Z,3.35
2023-02-25T17:08:02.861Z,4.75
2023-02-25T17:10:32.452Z,5.55
2023-02-25T17:13:03.521Z,3.63
2023-02-25T17:15:36.364Z,1.70
2023-02-25T17:18:12.007Z,1.60
2023-02-25T17:20:41.578Z,1.40
2023-02-25T17:23:13.847Z,2.10
2023-02-25T17:25:47.053Z,1.90
2023-02-25T17:28:26.186Z,5.00
2023-02-25T17:31:03.599Z,3.70
2023-02-25T17:33:32.719Z,3.92
2023-02-25T17:36:09.687Z,10.70
2023-02-25T17:38:39.233Z,9.35
2023-02-25T17:41:07.747Z,7.80
2023-02-25T17:43:39.839Z,11.05
2023-02-25T17:46:30.142Z,4.00
2023-02-25T17:49:21.923Z,11.63
2023-02-25T17:51:59.088Z,19.67
2023-02-25T17:54:29.228Z,52.60
2023-02-25T17:57:10.486Z,33.33
2023-02-25T17:59:40.889Z,7.15
2023-02-25T18:02:37.142Z,6.20
2023-02-25T18:05:14.344Z,13.75
2023-02-25T18:08:11.029Z,18.13
2023-02-25T18:10:38.899Z,7.70
2023-02-25T18:13:17.311Z,9.45
2023-02-25T18:15:50.802Z,4.35
2023-02-25T18:18:23.548Z,6.85
2023-02-25T18:20:59.422Z,2.60
2023-02-25T18:23:31.753Z,3.45
2023-02-25T18:26:27.190Z,3.10
2023-02-25T18:28:58.198Z,1.73
2023-02-25T18:31:27.124Z,1.90
2023-02-25T18:33:55.794Z,24.17
2023-02-25T18:36:27.212Z,2.83
2023-02-25T18:39:00.847Z,1.63
2023-02-25T18:41:28.496Z,0.77
2023-02-25T18:43:56.679Z,8.35
2023-02-25T18:46:25.143Z,3.33
2023-02-25T18:48:53.184Z,9.57
2023-02-25T18:51:21.254Z,5.13
2023-02-25T18:53:51.027Z,2.83
2023-02-25T18:56:19.692Z,2.55
2023-02-25T18:58:48.147Z,2.22
2023-02-25T19:01:26.344Z,7.05
2023-02-25T19:03:59.928Z,13.75
2023-02-25T19:06:33.930Z,11.25
2023-02-25T19:09:02.114Z,5.10
2023-02-25T19:11:36.519Z,4.03
2023-02-25T19:14:08.969Z,23.42
2023-02-25T19:16:37.326Z,14.73
2023-02-25T19:19:05.275Z,3.83
2023-02-25T19:21:34.636Z,3.83
2023-02-25T19:24:02.805Z,1.95
2023-02-25T19:26:33.354Z,3.10
2023-02-25T19:29:01.830Z,2.88
2023-02-25T19:31:30.612Z,5.13
2023-02-25T19:33:59.393Z,7.82
2023-02-25T19:36:29.042Z,4.38
2023-02-25T19:38:57.230Z,3.35
2023-02-25T19:41:26.442Z,3.50
2023-02-25T19:43:54.644Z,4.63
2023-02-25T19:46:23.671Z,3.75
2023-02-25T19:48:53.302Z,4.57
2023-02-25T19:51:21.585Z,5.00
2023-02-25T19:53:52.426Z,8.18
2023-02-25T19:56:20.659Z,9.70
2023-02-25T19:58:48.583Z,5.57
2023-02-25T20:01:16.865Z,17.17
2023-02-25T20:03:44.826Z,12.55
2023-02-25T20:06:18.716Z,5.85
2023-02-25T20:08:53.094Z,10.15
2023-02-25T20:11:23.896Z,7.20
2023-02-25T20:13:51.760Z,12.82
2023-02-25T20:16:21.882Z,9.27
2023-02-25T20:18:53.927Z,17.13
2023-02-25T20:21:24.122Z,10.87
2023-02-25T20:23:53.688Z,7.30
2023-02-25T20:26:24.890Z,4.93
2023-02-25T20:28:56.821Z,6.10
2023-02-25T20:31:25.992Z,6.50
2023-02-25T20:33:57.634Z,4.22
2023-02-25T20:36:33.479Z,3.25
2023-02-25T20:39:25.008Z,7.68
2023-02-25T20:41:54.627Z,2.67
2023-02-25T20:44:24.085Z,3.55
2023-02-25T20:46:52.258Z,7.18
2023-02-25T20:49:21.414Z,5.47
2023-02-25T20:51:50.610Z,1.20
2023-02-25T20:54:19.871Z,2.72
2023-02-25T20:56:49.295Z,8.63
2023-02-25T20:59:17.996Z,3.10
2023-02-25T21:01:46.017Z,2.75
2023-02-25T21:04:14.075Z,2.28
2023-02-25T21:06:43.624Z,1.98
2023-02-25T21:09:11.438Z,2.22
2023-02-25T21:11:39.768Z,2.28
2023-02-25T21:14:10.460Z,2.47
2023-02-25T21:16:39.509Z,4.00
2023-02-25T21:19:09.143Z,2.72
2023-02-25T21:21:38.918Z,2.38
2023-02-25T21:24:10.111Z,2.03
2023-02-25T21:26:40.431Z,2.97
2023-02-25T21:29:10.738Z,1.73
2023-02-25T21:31:40.033Z,2.25
2023-02-25T21:34:12.329Z,6.38
2023-02-25T21:36:40.970Z,2.08
2023-02-25T21:39:09.764Z,4.63
2023-02-25T21:41:39.585Z,4.05
2023-02-25T21:44:08.152Z,2.50
2023-02-25T21:46:35.628Z,1.95
2023-02-25T21:49:03.091Z,1.77
2023-02-25T21:51:30.413Z,1.52
2023-02-25T21:53:59.743Z,3.00
2023-02-25T21:56:28.004Z,3.08
2023-02-25T21:59:03.669Z,3.60
2023-02-25T22:01:35.033Z,4.20
2023-02-25T22:04:02.802Z,5.72
2023-02-25T22:06:30.500Z,4.05
2023-02-25T22:08:58.759Z,5.18
2023-02-25T22:11:31.904Z,5.05
2023-02-25T22:14:00.579Z,4.53
2023-02-25T22:16:28.517Z,3.17
2023-02-25T22:18:57.216Z,3.65
2023-02-25T22:21:30.478Z,3.35
2023-02-25T22:23:59.777Z,1.80
2023-02-25T22:26:33.204Z,1.67
2023-02-25T22:29:02.908Z,3.03
2023-02-25T22:31:30.730Z,1.65
2023-02-25T22:33:58.205Z,1.42
2023-02-25T22:36:26.127Z,1.20
2023-02-25T22:38:54.095Z,1.50
2023-02-25T22:41:27.052Z,1.27
2023-02-25T22:43:55.016Z,1.83
2023-02-25T22:46:28.714Z,1.08
2023-02-25T22:48:56.873Z,1.60
2023-02-25T22:51:25.580Z,1.23
2023-02-25T22:53:53.421Z,1.30
2023-02-25T22:56:21.161Z,1.30
2023-02-25T22:58:48.364Z,1.70
2023-02-25T23:01:19.422Z,1.40
2023-02-25T23:03:47.756Z,1.65
2023-02-25T23:06:16.627Z,1.67
2023-02-25T23:08:44.229Z,4.22
2023-02-25T23:11:14.416Z,2.65
2023-02-25T23:13:52.579Z,3.35
2023-02-25T23:16:23.010Z,1.15
2023-02-25T23:18:51.185Z,2.30
2023-02-25T23:21:19.970Z,2.17
2023-02-25T23:23:49.461Z,1.85
2023-02-25T23:26:20.294Z,1.38
2023-02-25T23:28:48.083Z,0.90
2023-02-25T23:31:23.954Z,0.60
2023-02-25T23:33:54.661Z,1.52
2023-02-25T23:36:22.030Z,0.77
2023-02-25T23:38:56.755Z,0.73
2023-02-25T23:41:24.867Z,0.80
2023-02-25T23:43:53.533Z,1.65
2023-02-25T23:46:21.505Z,1.92
2023-02-25T23:48:49.016Z,0.70
2023-02-25T23:51:16.218Z,0.80
2023-02-25T23:53:43.361Z,0.70
2023-02-25T23:56:12.552Z,0.85
2023-02-25T23:58:40.136Z,0.80
